Indianapolis, IN (46280)

10:35 AM EDT on May 29, 2015 (GMT -0400)
Clay Township N7CZ | | Change Station
CLOSE
Current Station
Personal Weather Station
Location: Indianapolis, IN
Elevation: 840 ft
Nearby Weather Stations

Elev 840 ft 39.93 °N, 86.14 °W | Updated 2 seconds ago

Clear
Clear
79.0 °F
Feels Like 84 °F
N
3.1
Wind Variable Wind from NW
Gusts 4.5 mph

Today
High -- | Low -- °F
--% Chance of Precip.
Yesterday
High -- | Low -- °F
Precip. -- in
6:19 AM 9:04 PM
Waxing Gibbous, 84% visible
Pressure 30.10 in
Visibility 10.0 miles
Clouds Few 3300 ft
Few 9000 ft
Mostly Cloudy 25000 ft
Heat Index 84 °F
Dew Point 79 °F
Humidity 99%
Rainfall 0.00 in
Snow Depth Not available.
UV 3 out of 12
Pollen 7.30 out of 12
Air Quality Not available.
Flu Activity Sporadic
METAR KIND 291354Z 18005KT 10SM FEW033 FEW090 BKN250 22/18 A3011 RMK AO2 SLP191 TCU DSNT W ACC S AND DSNT SE T02220178

More Conditions Fewer Conditions

Pressure 30.10 in
Visibility 10.0 miles
Clouds Few 3300 ft
Few 9000 ft
Mostly Cloudy 25000 ft
Heat Index 84 °F
Dew Point 79 °F
Humidity 99%
Rainfall 0.00 in
Snow Depth Not available.
UV 3 out of 12
Pollen 7.30 out of 12
Air Quality Not available.
Flu Activity Sporadic
METAR KIND 291354Z 18005KT 10SM FEW033 FEW090 BKN250 22/18 A3011 RMK AO2 SLP191 TCU DSNT W ACC S AND DSNT SE T02220178

More Conditions Fewer Conditions

10-Day Weather Forecast

Almanac

Astronomy

May. 29, 2015 Rise Set
Actual Time
Civil Twilight
Nautical Twilight
Astronomical Twilight
Moon
Length of Visible Light
Length of Day
Tomorrow will be .
, % of the Moon is Illuminated

Today's Extremes

State Highs State Lows

Community

WunderPhotos

Upload Photos

1,825,284 photos uploaded!

WunderBlogs® & News

Nearby

Air Quality

  Air Quality AQ Index Pollutant
Not available.

Snow Depth

Station Depth Elevation

Earthquake Activity

City Distance Mag. Time & Date
Minimum magnitude displayed is 2.5.

Coastal Water Temperatures

Place Temperature

Stations

Nearby Weather Stations

Station Location Temp. Windchill Dew Point Humidity Wind Precip. Elev Updated Type